createdAt,value
2022-09-27T00:00:03.238Z,0
2022-09-27T00:05:02.826Z,0
2022-09-27T00:10:02.681Z,0
2022-09-27T00:15:02.501Z,0
2022-09-27T00:20:03.170Z,0
2022-09-27T00:25:02.863Z,0
2022-09-27T00:30:03.211Z,0
2022-09-27T00:35:02.787Z,0
2022-09-27T00:40:02.903Z,0
2022-09-27T00:45:02.583Z,0
2022-09-27T00:50:02.255Z,0
2022-09-27T00:55:04.334Z,0
2022-09-27T01:00:02.548Z,0
2022-09-27T01:05:03.195Z,0
2022-09-27T01:10:02.879Z,0
2022-09-27T01:15:02.486Z,0
2022-09-27T01:20:02.974Z,0
2022-09-27T01:25:02.980Z,0
2022-09-27T01:30:02.634Z,0
2022-09-27T01:35:02.383Z,0
2022-09-27T01:40:03.649Z,0
2022-09-27T01:45:03.425Z,0
2022-09-27T01:50:02.870Z,0
2022-09-27T01:55:03.809Z,0
2022-09-27T02:00:03.316Z,0
2022-09-27T02:05:02.946Z,0
2022-09-27T02:10:03.595Z,0
2022-09-27T02:15:03.341Z,0
2022-09-27T02:20:03.027Z,0
2022-09-27T02:25:02.785Z,0
2022-09-27T02:30:03.483Z,0
2022-09-27T02:35:03.038Z,0
2022-09-27T02:40:02.764Z,0
2022-09-27T02:45:03.429Z,0
2022-09-27T02:50:03.018Z,0
2022-09-27T02:55:03.897Z,0
2022-09-27T03:00:03.552Z,0
2022-09-27T03:05:03.512Z,0
2022-09-27T03:10:03.266Z,0
2022-09-27T03:15:03.040Z,0
2022-09-27T03:20:02.679Z,0
2022-09-27T03:25:03.425Z,0
2022-09-27T03:30:03.101Z,0
2022-09-27T03:35:02.997Z,0
2022-09-27T03:40:02.631Z,0
2022-09-27T03:45:03.327Z,0
2022-09-27T03:50:03.218Z,0
2022-09-27T03:55:03.651Z,0
2022-09-27T04:00:03.425Z,0
2022-09-27T04:05:02.988Z,0
2022-09-27T04:10:02.726Z,0
2022-09-27T04:15:03.506Z,0
2022-09-27T04:20:03.193Z,0
2022-09-27T04:25:02.914Z,0
2022-09-27T04:30:03.617Z,0.11
2022-09-27T04:35:03.231Z,0.34
2022-09-27T04:40:02.722Z,1.13
2022-09-27T04:45:03.646Z,3.62
2022-09-27T04:50:03.237Z,10.64
2022-09-27T04:55:04.095Z,11.67
2022-09-27T05:00:03.116Z,21.67
2022-09-27T05:05:02.347Z,36.67
2022-09-27T05:10:03.062Z,51.67
2022-09-27T05:15:02.780Z,65
2022-09-27T05:20:02.494Z,98.33
2022-09-27T05:25:03.156Z,136.67
2022-09-27T05:30:02.857Z,131.67
2022-09-27T05:35:02.479Z,173.33
2022-09-27T05:40:12.151Z,235
2022-09-27T05:45:03.189Z,278.33
2022-09-27T05:50:02.809Z,400
2022-09-27T05:55:03.745Z,456.67
2022-09-27T06:00:03.410Z,510
2022-09-27T06:05:02.601Z,833.33
2022-09-27T06:10:02.339Z,1186.67
2022-09-27T06:15:03.017Z,1081.67
2022-09-27T06:20:02.718Z,1031.67
2022-09-27T06:25:02.212Z,990
2022-09-27T06:30:02.952Z,1100
2022-09-27T06:35:02.601Z,1398.33
2022-09-27T06:40:02.338Z,1501.67
2022-09-27T06:45:03.195Z,2690
2022-09-27T06:50:03.042Z,2263.33
2022-09-27T06:55:03.763Z,2240
2022-09-27T07:00:03.526Z,1986.67
2022-09-27T07:05:03.190Z,2085
2022-09-27T07:10:10.363Z,1653.33
2022-09-27T07:15:03.065Z,1271.67
2022-09-27T07:20:02.786Z,1525
2022-09-27T07:25:03.437Z,2580
2022-09-27T07:30:03.171Z,2855
2022-09-27T07:35:02.748Z,2891.67
2022-09-27T07:40:03.377Z,2481.67
2022-09-27T07:45:09.660Z,3641.67
2022-09-27T07:50:03.287Z,4285
2022-09-27T07:55:03.966Z,4353.33
2022-09-27T08:00:02.649Z,4041.67
2022-09-27T08:05:03.278Z,4105
2022-09-27T08:10:02.944Z,3758.33
2022-09-27T08:15:03.593Z,2901.67
2022-09-27T08:20:03.329Z,4693.33
2022-09-27T08:25:02.959Z,4756.67
2022-09-27T08:30:02.819Z,3923.33
2022-09-27T08:35:03.583Z,3558.33
2022-09-27T08:40:03.255Z,3438.33
2022-09-27T08:45:04.480Z,4401.67
2022-09-27T08:50:03.573Z,6030
2022-09-27T08:55:04.162Z,5945
2022-09-27T09:00:02.942Z,4400
2022-09-27T09:05:02.671Z,4718.33
2022-09-27T09:10:03.127Z,5341.67
2022-09-27T09:15:03.211Z,5335
2022-09-27T09:20:02.882Z,6620
2022-09-27T09:25:02.503Z,6250
2022-09-27T09:30:03.222Z,3945
2022-09-27T09:35:02.830Z,3970
2022-09-27T09:40:09.503Z,2010
2022-09-27T09:45:03.217Z,1718.33
2022-09-27T09:50:02.864Z,1066.67
2022-09-27T09:55:03.350Z,2225
2022-09-27T10:00:03.281Z,2560
2022-09-27T10:05:08.471Z,4608.33
2022-09-27T10:10:03.179Z,7016.67
2022-09-27T10:15:02.917Z,5560
2022-09-27T10:20:02.582Z,4053.33
2022-09-27T10:25:03.252Z,5388.33
2022-09-27T10:30:02.981Z,3256.67
2022-09-27T10:35:02.555Z,1265
2022-09-27T10:40:02.563Z,1333.33
2022-09-27T10:45:03.398Z,2866.67
2022-09-27T10:50:02.983Z,4206.67
2022-09-27T10:55:03.933Z,5218.33
2022-09-27T11:00:03.330Z,8291.67
2022-09-27T11:05:03.355Z,12081.67
2022-09-27T11:10:02.623Z,10448.33
2022-09-27T11:15:03.449Z,11298.33
2022-09-27T11:20:03.235Z,8465
2022-09-27T11:25:02.904Z,4888.33
2022-09-27T11:30:02.614Z,6096.67
2022-09-27T11:35:03.164Z,5978.33
2022-09-27T11:40:02.745Z,5481.67
2022-09-27T11:45:27.049Z,7656.67
2022-09-27T11:50:03.158Z,5903.33
2022-09-27T11:55:03.935Z,3315
2022-09-27T12:00:02.502Z,6785
2022-09-27T12:05:03.125Z,9835
2022-09-27T12:10:02.922Z,37600
2022-09-27T12:15:06.574Z,31056.67
2022-09-27T12:20:02.240Z,10446.67
2022-09-27T12:25:02.901Z,7598.33
2022-09-27T12:30:02.687Z,8716.67
2022-09-27T12:35:02.263Z,1726.67
2022-09-27T12:40:02.930Z,2941.67
2022-09-27T12:45:02.871Z,3848.33
2022-09-27T12:50:02.654Z,6361.67
2022-09-27T12:55:03.649Z,10795
2022-09-27T13:00:03.009Z,9676.67
2022-09-27T13:05:02.641Z,7678.33
2022-09-27T13:10:02.363Z,6468.33
2022-09-27T13:15:03.049Z,6150
2022-09-27T13:20:02.703Z,6943.33
2022-09-27T13:25:02.366Z,5620
2022-09-27T13:30:03.029Z,3715
2022-09-27T13:35:02.689Z,3455
2022-09-27T13:40:02.341Z,1843.33
2022-09-27T13:45:02.994Z,1483.33
2022-09-27T13:50:02.985Z,1708.33
2022-09-27T13:55:03.839Z,2380
2022-09-27T14:00:03.326Z,2266.67
2022-09-27T14:05:02.940Z,2171.67
2022-09-27T14:10:02.594Z,2763.33
2022-09-27T14:15:03.359Z,4055
2022-09-27T14:20:02.973Z,5203.33
2022-09-27T14:25:02.627Z,5180
2022-09-27T14:30:03.304Z,4860
2022-09-27T14:35:03.361Z,5886.67
2022-09-27T14:40:03.344Z,6045
2022-09-27T14:45:03.073Z,5585
2022-09-27T14:50:06.217Z,4135
2022-09-27T14:55:04.146Z,1893.33
2022-09-27T15:00:03.140Z,3233.33
2022-09-27T15:05:02.757Z,4740
2022-09-27T15:10:03.394Z,4151.67
2022-09-27T15:15:03.075Z,5466.67
2022-09-27T15:20:02.852Z,2938.33
2022-09-27T15:25:03.415Z,2623.33
2022-09-27T15:30:02.775Z,2418.33
2022-09-27T15:35:03.364Z,1830
2022-09-27T15:40:03.390Z,1145
2022-09-27T15:45:03.025Z,1306.67
2022-09-27T15:50:02.639Z,1531.67
2022-09-27T15:55:04.446Z,1401.67
2022-09-27T16:00:03.038Z,1240
2022-09-27T16:05:02.691Z,1358.33
2022-09-27T16:10:02.923Z,1255
2022-09-27T16:15:02.939Z,1066.67
2022-09-27T16:20:02.508Z,813.33
2022-09-27T16:25:03.164Z,601.67
2022-09-27T16:30:02.833Z,521.67
2022-09-27T16:35:03.330Z,400
2022-09-27T16:40:02.951Z,333.33
2022-09-27T16:45:15.694Z,243.33
2022-09-27T16:50:03.341Z,191.67
2022-09-27T16:55:03.996Z,115
2022-09-27T17:00:02.489Z,66.67
2022-09-27T17:05:03.339Z,28.33
2022-09-27T17:10:03.109Z,8.33
2022-09-27T17:15:02.628Z,5
2022-09-27T17:20:03.420Z,6.45
2022-09-27T17:25:03.254Z,3.4
2022-09-27T17:30:02.599Z,1.47
2022-09-27T17:35:02.231Z,0.57
2022-09-27T17:40:02.887Z,0.11
2022-09-27T17:45:02.569Z,0
2022-09-27T17:50:02.434Z,0
2022-09-27T17:55:04.359Z,0
2022-09-27T18:00:02.697Z,0
2022-09-27T18:05:02.558Z,0
2022-09-27T18:10:02.251Z,0
2022-09-27T18:15:02.990Z,0
2022-09-27T18:20:02.615Z,0
2022-09-27T18:25:02.244Z,0
2022-09-27T18:30:03.020Z,0
2022-09-27T18:35:03.129Z,0
2022-09-27T18:40:03.168Z,0
2022-09-27T18:45:02.973Z,0
2022-09-27T18:50:03.609Z,0
2022-09-27T18:55:03.993Z,0
2022-09-27T19:00:02.981Z,0
2022-09-27T19:05:03.297Z,0
2022-09-27T19:10:03.281Z,0
2022-09-27T19:15:03.165Z,0
2022-09-27T19:20:02.689Z,0
2022-09-27T19:25:03.302Z,0
2022-09-27T19:30:02.961Z,0
2022-09-27T19:35:02.674Z,0
2022-09-27T19:40:03.394Z,0
2022-09-27T19:45:11.841Z,0
2022-09-27T19:50:03.521Z,0
2022-09-27T19:55:04.157Z,0
2022-09-27T20:00:02.811Z,0
2022-09-27T20:05:03.503Z,0
2022-09-27T20:10:03.416Z,0
2022-09-27T20:15:03.071Z,0
2022-09-27T20:20:03.533Z,0
2022-09-27T20:25:03.157Z,0
2022-09-27T20:30:03.029Z,0
2022-09-27T20:35:03.463Z,0
2022-09-27T20:40:03.134Z,0
2022-09-27T20:45:02.782Z,0
2022-09-27T20:50:03.087Z,0
2022-09-27T20:55:03.880Z,0
2022-09-27T21:00:02.645Z,0
2022-09-27T21:05:03.420Z,0
2022-09-27T21:10:03.135Z,0
2022-09-27T21:15:02.929Z,0
2022-09-27T21:20:02.604Z,0
2022-09-27T21:25:03.295Z,0
2022-09-27T21:30:02.988Z,0
2022-09-27T21:35:02.620Z,0
2022-09-27T21:40:03.284Z,0
2022-09-27T21:45:02.929Z,0
2022-09-27T21:50:02.707Z,0
2022-09-27T21:55:04.334Z,0
2022-09-27T22:00:03.130Z,0
2022-09-27T22:05:02.883Z,0
2022-09-27T22:10:02.462Z,0
2022-09-27T22:15:03.999Z,0
2022-09-27T22:20:03.523Z,0
2022-09-27T22:25:03.079Z,0
2022-09-27T22:30:03.585Z,0
2022-09-27T22:35:03.158Z,0
2022-09-27T22:40:02.804Z,0
2022-09-27T22:45:03.473Z,0
2022-09-27T22:50:03.081Z,0
2022-09-27T22:55:04.489Z,0
2022-09-27T23:00:02.686Z,0
2022-09-27T23:05:03.211Z,0
2022-09-27T23:10:02.683Z,0
2022-09-27T23:15:02.369Z,0
2022-09-27T23:20:02.902Z,0
2022-09-27T23:25:02.542Z,0
2022-09-27T23:30:03.202Z,0
2022-09-27T23:35:02.789Z,0
2022-09-27T23:40:02.527Z,0
2022-09-27T23:45:02.286Z,0
2022-09-27T23:50:02.880Z,0
2022-09-27T23:55:03.808Z,0
